sensor_id;sensor_type;location;lat;lon;timestamp;temperature;humidity
25170;DHT22;13129;48.012;10.352;2023-08-24T03:45:01;16.90;99.90
25170;DHT22;13129;48.012;10.352;2023-08-24T03:47:27;16.90;99.90
25170;DHT22;13129;48.012;10.352;2023-08-24T03:49:52;16.90;99.90
25170;DHT22;13129;48.012;10.352;2023-08-24T03:52:18;16.90;99.90
25170;DHT22;13129;48.012;10.352;2023-08-24T03:54:43;16.90;99.90
25170;DHT22;13129;48.012;10.352;2023-08-24T03:57:09;16.90;99.90
25170;DHT22;13129;48.012;10.352;2023-08-24T03:59:34;17.00;99.90
25170;DHT22;13129;48.012;10.352;2023-08-24T04:02:00;16.90;99.90
25170;DHT22;13129;48.012;10.352;2023-08-24T04:04:28;16.90;99.90
25170;DHT22;13129;48.012;10.352;2023-08-24T04:06:55;16.80;99.90
25170;DHT22;13129;48.012;10.352;2023-08-24T04:09:20;16.80;99.90
25170;DHT22;13129;48.012;10.352;2023-08-24T04:11:46;16.80;99.90
25170;DHT22;13129;48.012;10.352;2023-08-24T04:14:11;16.80;99.90
25170;DHT22;13129;48.012;10.352;2023-08-24T04:16:37;16.80;99.90
25170;DHT22;13129;48.012;10.352;2023-08-24T04:19:03;16.80;99.90
25170;DHT22;13129;48.012;10.352;2023-08-24T04:21:28;16.80;99.90
25170;DHT22;13129;48.012;10.352;2023-08-24T04:23:54;16.80;99.90
25170;DHT22;13129;48.012;10.352;2023-08-24T04:26:19;16.90;99.90
25170;DHT22;13129;48.012;10.352;2023-08-24T04:28:45;16.80;99.90
25170;DHT22;13129;48.012;10.352;2023-08-24T04:31:11;16.70;99.90
25170;DHT22;13129;48.012;10.352;2023-08-24T04:33:36;16.70;99.90
25170;DHT22;13129;48.012;10.352;2023-08-24T04:36:02;16.70;99.90
25170;DHT22;13129;48.012;10.352;2023-08-24T04:38:31;16.80;99.90
25170;DHT22;13129;48.012;10.352;2023-08-24T04:40:57;16.90;99.90
25170;DHT22;13129;48.012;10.352;2023-08-24T04:43:23;16.80;99.90
25170;DHT22;13129;48.012;10.352;2023-08-24T04:45:51;16.80;99.90
25170;DHT22;13129;48.012;10.352;2023-08-24T04:48:20;16.90;99.90
25170;DHT22;13129;48.012;10.352;2023-08-24T04:50:46;16.90;99.90
25170;DHT22;13129;48.012;10.352;2023-08-24T04:53:19;17.00;99.90
25170;DHT22;13129;48.012;10.352;2023-08-24T04:55:45;17.20;99.90
25170;DHT22;13129;48.012;10.352;2023-08-24T04:58:12;17.20;99.90
25170;DHT22;13129;48.012;10.352;2023-08-24T05:00:38;17.20;99.90
25170;DHT22;13129;48.012;10.352;2023-08-24T05:03:05;17.30;99.90
25170;DHT22;13129;48.012;10.352;2023-08-24T05:05:34;17.50;99.90
25170;DHT22;13129;48.012;10.352;2023-08-24T05:08:01;17.50;99.90
25170;DHT22;13129;48.012;10.352;2023-08-24T05:10:32;17.70;99.90
25170;DHT22;13129;48.012;10.352;2023-08-24T05:12:57;17.90;99.90
25170;DHT22;13129;48.012;10.352;2023-08-24T05:15:23;17.80;99.90
25170;DHT22;13129;48.012;10.352;2023-08-24T05:17:48;17.90;99.90
25170;DHT22;13129;48.012;10.352;2023-08-24T05:20:15;18.00;99.90
25170;DHT22;13129;48.012;10.352;2023-08-24T05:22:41;18.10;99.90
25170;DHT22;13129;48.012;10.352;2023-08-24T05:25:06;18.20;99.90
25170;DHT22;13129;48.012;10.352;2023-08-24T05:27:32;18.50;99.90
25170;DHT22;13129;48.012;10.352;2023-08-24T05:29:58;19.00;99.90
25170;DHT22;13129;48.012;10.352;2023-08-24T05:32:24;19.30;99.90
25170;DHT22;13129;48.012;10.352;2023-08-24T05:34:50;19.80;99.90
25170;DHT22;13129;48.012;10.352;2023-08-24T05:37:16;20.40;99.90
25170;DHT22;13129;48.012;10.352;2023-08-24T05:39:42;21.10;99.90
25170;DHT22;13129;48.012;10.352;2023-08-24T05:42:08;21.70;99.90
25170;DHT22;13129;48.012;10.352;2023-08-24T05:44:34;22.20;99.90
25170;DHT22;13129;48.012;10.352;2023-08-24T05:47:00;22.60;99.90
25170;DHT22;13129;48.012;10.352;2023-08-24T05:49:26;23.20;99.90
25170;DHT22;13129;48.012;10.352;2023-08-24T05:51:52;23.70;99.90
25170;DHT22;13129;48.012;10.352;2023-08-24T05:54:18;24.30;99.90
25170;DHT22;13129;48.012;10.352;2023-08-24T05:56:45;24.80;99.90
25170;DHT22;13129;48.012;10.352;2023-08-24T05:59:10;24.90;99.90
25170;DHT22;13129;48.012;10.352;2023-08-24T06:01:36;24.40;99.90
25170;DHT22;13129;48.012;10.352;2023-08-24T06:04:08;23.90;99.90
25170;DHT22;13129;48.012;10.352;2023-08-24T06:06:35;23.30;99.90
25170;DHT22;13129;48.012;10.352;2023-08-24T06:09:01;22.70;99.90
25170;DHT22;13129;48.012;10.352;2023-08-24T06:11:26;22.10;99.90
25170;DHT22;13129;48.012;10.352;2023-08-24T06:13:52;21.70;99.90
25170;DHT22;13129;48.012;10.352;2023-08-24T06:16:20;21.50;99.90
25170;DHT22;13129;48.012;10.352;2023-08-24T06:18:46;21.30;99.90
25170;DHT22;13129;48.012;10.352;2023-08-24T06:21:11;21.70;99.90
25170;DHT22;13129;48.012;10.352;2023-08-24T06:23:38;22.70;99.90
25170;DHT22;13129;48.012;10.352;2023-08-24T06:26:04;23.80;99.90
25170;DHT22;13129;48.012;10.352;2023-08-24T06:28:30;24.50;99.90
25170;DHT22;13129;48.012;10.352;2023-08-24T06:30:55;25.50;99.90
25170;DHT22;13129;48.012;10.352;2023-08-24T06:33:21;26.20;99.90
25170;DHT22;13129;48.012;10.352;2023-08-24T06:35:52;27.00;99.90
25170;DHT22;13129;48.012;10.352;2023-08-24T06:38:17;27.80;99.90
25170;DHT22;13129;48.012;10.352;2023-08-24T06:40:43;28.10;99.90
25170;DHT22;13129;48.012;10.352;2023-08-24T06:43:08;28.50;99.90
25170;DHT22;13129;48.012;10.352;2023-08-24T06:45:34;28.70;99.90
25170;DHT22;13129;48.012;10.352;2023-08-24T06:48:00;28.90;99.90
25170;DHT22;13129;48.012;10.352;2023-08-24T06:50:29;29.80;99.90
25170;DHT22;13129;48.012;10.352;2023-08-24T06:52:54;30.40;99.20
25170;DHT22;13129;48.012;10.352;2023-08-24T06:55:20;30.90;97.10
25170;DHT22;13129;48.012;10.352;2023-08-24T06:57:48;31.70;96.00
25170;DHT22;13129;48.012;10.352;2023-08-24T07:00:15;31.90;93.70
25170;DHT22;13129;48.012;10.352;2023-08-24T07:02:40;32.50;92.70
25170;DHT22;13129;48.012;10.352;2023-08-24T07:05:06;32.90;91.20
25170;DHT22;13129;48.012;10.352;2023-08-24T07:07:34;33.30;89.60
25170;DHT22;13129;48.012;10.352;2023-08-24T07:10:00;33.60;86.80
25170;DHT22;13129;48.012;10.352;2023-08-24T07:12:25;34.00;85.00
25170;DHT22;13129;48.012;10.352;2023-08-24T07:14:51;34.20;83.20
25170;DHT22;13129;48.012;10.352;2023-08-24T07:17:17;34.50;82.20
25170;DHT22;13129;48.012;10.352;2023-08-24T07:19:43;34.90;81.10
25170;DHT22;13129;48.012;10.352;2023-08-24T07:22:09;34.90;79.30
25170;DHT22;13129;48.012;10.352;2023-08-24T07:24:34;34.90;77.30
25170;DHT22;13129;48.012;10.352;2023-08-24T07:27:01;35.30;76.80
25170;DHT22;13129;48.012;10.352;2023-08-24T07:29:28;35.60;76.40
25170;DHT22;13129;48.012;10.352;2023-08-24T07:31:54;36.40;74.60
25170;DHT22;13129;48.012;10.352;2023-08-24T07:34:19;37.00;72.20
25170;DHT22;13129;48.012;10.352;2023-08-24T07:36:47;37.30;70.80
25170;DHT22;13129;48.012;10.352;2023-08-24T07:39:14;38.10;68.40
25170;DHT22;13129;48.012;10.352;2023-08-24T07:41:44;38.30;65.80
25170;DHT22;13129;48.012;10.352;2023-08-24T07:44:09;38.50;64.00
25170;DHT22;13129;48.012;10.352;2023-08-24T07:46:35;39.30;62.40
25170;DHT22;13129;48.012;10.352;2023-08-24T07:49:00;39.80;60.00
25170;DHT22;13129;48.012;10.352;2023-08-24T07:51:26;39.60;59.10
25170;DHT22;13129;48.012;10.352;2023-08-24T07:53:52;38.70;60.10
25170;DHT22;13129;48.012;10.352;2023-08-24T07:56:18;39.20;59.60
25170;DHT22;13129;48.012;10.352;2023-08-24T07:58:44;38.90;59.40
25170;DHT22;13129;48.012;10.352;2023-08-24T08:01:11;38.70;60.60
25170;DHT22;13129;48.012;10.352;2023-08-24T08:03:36;39.10;60.00
25170;DHT22;13129;48.012;10.352;2023-08-24T08:06:02;40.10;58.30
25170;DHT22;13129;48.012;10.352;2023-08-24T08:08:28;39.80;56.90
25170;DHT22;13129;48.012;10.352;2023-08-24T08:11:01;38.00;58.70
25170;DHT22;13129;48.012;10.352;2023-08-24T08:13:28;37.00;60.80
25170;DHT22;13129;48.012;10.352;2023-08-24T08:15:54;36.50;63.50
25170;DHT22;13129;48.012;10.352;2023-08-24T08:18:19;36.70;63.60
25170;DHT22;13129;48.012;10.352;2023-08-24T08:20:45;37.80;62.00
25170;DHT22;13129;48.012;10.352;2023-08-24T08:23:11;39.00;59.50
25170;DHT22;13129;48.012;10.352;2023-08-24T08:25:36;39.60;58.10
25170;DHT22;13129;48.012;10.352;2023-08-24T08:28:03;40.80;57.30
25170;DHT22;13129;48.012;10.352;2023-08-24T08:30:28;41.50;55.30
25170;DHT22;13129;48.012;10.352;2023-08-24T08:32:54;40.70;55.20
25170;DHT22;13129;48.012;10.352;2023-08-24T08:35:22;39.70;56.50
25170;DHT22;13129;48.012;10.352;2023-08-24T08:37:47;38.20;58.30
25170;DHT22;13129;48.012;10.352;2023-08-24T08:40:15;37.00;60.70
25170;DHT22;13129;48.012;10.352;2023-08-24T08:42:41;36.10;63.10
25170;DHT22;13129;48.012;10.352;2023-08-24T08:45:09;35.30;65.40
25170;DHT22;13129;48.012;10.352;2023-08-24T08:47:35;34.60;67.00
25170;DHT22;13129;48.012;10.352;2023-08-24T08:50:02;33.90;68.90
25170;DHT22;13129;48.012;10.352;2023-08-24T08:52:29;33.50;70.10
25170;DHT22;13129;48.012;10.352;2023-08-24T08:54:54;33.70;70.50
25170;DHT22;13129;48.012;10.352;2023-08-24T08:57:22;34.20;69.40
25170;DHT22;13129;48.012;10.352;2023-08-24T08:59:50;34.90;68.20
25170;DHT22;13129;48.012;10.352;2023-08-24T09:02:19;36.30;65.60
25170;DHT22;13129;48.012;10.352;2023-08-24T09:04:45;37.40;63.40
25170;DHT22;13129;48.012;10.352;2023-08-24T09:07:16;38.10;61.20
25170;DHT22;13129;48.012;10.352;2023-08-24T09:09:42;38.80;58.10
25170;DHT22;13129;48.012;10.352;2023-08-24T09:12:08;39.40;57.80
25170;DHT22;13129;48.012;10.352;2023-08-24T09:14:34;39.80;57.00
25170;DHT22;13129;48.012;10.352;2023-08-24T09:17:00;40.00;57.00
25170;DHT22;13129;48.012;10.352;2023-08-24T09:19:33;39.40;56.60
25170;DHT22;13129;48.012;10.352;2023-08-24T09:22:04;38.00;58.40
25170;DHT22;13129;48.012;10.352;2023-08-24T09:24:30;36.50;61.60
25170;DHT22;13129;48.012;10.352;2023-08-24T09:26:57;36.40;62.40
25170;DHT22;13129;48.012;10.352;2023-08-24T09:29:23;36.70;61.90
25170;DHT22;13129;48.012;10.352;2023-08-24T09:31:50;36.90;62.10
25170;DHT22;13129;48.012;10.352;2023-08-24T09:34:19;37.90;61.50
25170;DHT22;13129;48.012;10.352;2023-08-24T09:36:48;38.30;59.70
25170;DHT22;13129;48.012;10.352;2023-08-24T09:39:16;39.00;58.30
25170;DHT22;13129;48.012;10.352;2023-08-24T09:41:48;39.70;57.20
25170;DHT22;13129;48.012;10.352;2023-08-24T09:44:14;39.30;57.00
25170;DHT22;13129;48.012;10.352;2023-08-24T09:46:40;39.20;57.30
25170;DHT22;13129;48.012;10.352;2023-08-24T09:49:08;39.70;57.20
25170;DHT22;13129;48.012;10.352;2023-08-24T09:51:34;40.20;55.70
25170;DHT22;13129;48.012;10.352;2023-08-24T09:54:05;40.30;55.70
25170;DHT22;13129;48.012;10.352;2023-08-24T09:56:38;40.60;54.70
25170;DHT22;13129;48.012;10.352;2023-08-24T09:59:22;40.50;54.50
25170;DHT22;13129;48.012;10.352;2023-08-24T10:01:51;40.90;54.30
25170;DHT22;13129;48.012;10.352;2023-08-24T10:04:25;41.80;53.00
25170;DHT22;13129;48.012;10.352;2023-08-24T10:07:03;42.00;52.30
25170;DHT22;13129;48.012;10.352;2023-08-24T10:09:45;42.70;51.30
25170;DHT22;13129;48.012;10.352;2023-08-24T10:12:13;43.00;51.20
25170;DHT22;13129;48.012;10.352;2023-08-24T10:14:47;43.40;49.50
25170;DHT22;13129;48.012;10.352;2023-08-24T10:17:17;43.30;49.70
25170;DHT22;13129;48.012;10.352;2023-08-24T10:19:43;43.50;49.50
25170;DHT22;13129;48.012;10.352;2023-08-24T10:22:09;43.10;49.20
25170;DHT22;13129;48.012;10.352;2023-08-24T10:24:35;43.40;48.80
25170;DHT22;13129;48.012;10.352;2023-08-24T10:27:03;43.20;48.70
25170;DHT22;13129;48.012;10.352;2023-08-24T10:29:29;43.10;48.50
25170;DHT22;13129;48.012;10.352;2023-08-24T10:31:55;43.10;48.80
25170;DHT22;13129;48.012;10.352;2023-08-24T10:34:22;43.40;48.90
25170;DHT22;13129;48.012;10.352;2023-08-24T10:36:48;42.90;48.40
25170;DHT22;13129;48.012;10.352;2023-08-24T10:39:14;42.80;49.10
25170;DHT22;13129;48.012;10.352;2023-08-24T10:41:51;42.60;48.40
25170;DHT22;13129;48.012;10.352;2023-08-24T10:44:24;42.40;50.10
25170;DHT22;13129;48.012;10.352;2023-08-24T10:49:32;41.60;52.10
25170;DHT22;13129;48.012;10.352;2023-08-24T10:51:58;41.20;52.40
25170;DHT22;13129;48.012;10.352;2023-08-24T10:54:45;39.60;52.90
25170;DHT22;13129;48.012;10.352;2023-08-24T10:57:27;39.10;53.60
25170;DHT22;13129;48.012;10.352;2023-08-24T11:02:51;38.00;55.30
25170;DHT22;13129;48.012;10.352;2023-08-24T11:05:28;37.80;56.00
25170;DHT22;13129;48.012;10.352;2023-08-24T11:08:00;37.60;56.30
25170;DHT22;13129;48.012;10.352;2023-08-24T11:10:33;37.30;56.70
25170;DHT22;13129;48.012;10.352;2023-08-24T11:18:39;37.30;59.90
25170;DHT22;13129;48.012;10.352;2023-08-24T11:21:06;37.30;58.70
25170;DHT22;13129;48.012;10.352;2023-08-24T11:23:32;37.30;58.30
25170;DHT22;13129;48.012;10.352;2023-08-24T11:25:59;37.10;57.40
25170;DHT22;13129;48.012;10.352;2023-08-24T11:28:26;36.60;56.60
25170;DHT22;13129;48.012;10.352;2023-08-24T11:30:53;36.20;58.00
25170;DHT22;13129;48.012;10.352;2023-08-24T11:33:34;36.20;58.90
25170;DHT22;13129;48.012;10.352;2023-08-24T11:36:03;36.40;58.40
25170;DHT22;13129;48.012;10.352;2023-08-24T11:38:39;36.40;58.00
25170;DHT22;13129;48.012;10.352;2023-08-24T11:41:23;36.30;58.10
25170;DHT22;13129;48.012;10.352;2023-08-24T11:43:49;36.20;58.20
25170;DHT22;13129;48.012;10.352;2023-08-24T11:46:17;36.30;58.70
25170;DHT22;13129;48.012;10.352;2023-08-24T11:48:44;36.20;57.70
25170;DHT22;13129;48.012;10.352;2023-08-24T11:51:12;36.30;56.70
25170;DHT22;13129;48.012;10.352;2023-08-24T11:53:47;36.10;56.60
25170;DHT22;13129;48.012;10.352;2023-08-24T11:56:13;36.00;56.20
25170;DHT22;13129;48.012;10.352;2023-08-24T11:58:42;35.80;56.20
25170;DHT22;13129;48.012;10.352;2023-08-24T12:01:09;35.90;55.80
25170;DHT22;13129;48.012;10.352;2023-08-24T12:03:36;36.10;55.50
25170;DHT22;13129;48.012;10.352;2023-08-24T12:06:02;36.20;54.70
25170;DHT22;13129;48.012;10.352;2023-08-24T12:08:29;36.00;52.30
25170;DHT22;13129;48.012;10.352;2023-08-24T12:10:55;35.90;52.00
25170;DHT22;13129;48.012;10.352;2023-08-24T12:13:22;35.90;52.00
25170;DHT22;13129;48.012;10.352;2023-08-24T12:15:47;35.80;52.30
25170;DHT22;13129;48.012;10.352;2023-08-24T12:18:16;35.70;53.00
25170;DHT22;13129;48.012;10.352;2023-08-24T12:20:41;35.20;53.70
25170;DHT22;13129;48.012;10.352;2023-08-24T12:23:09;34.70;54.80
25170;DHT22;13129;48.012;10.352;2023-08-24T12:25:42;34.50;55.60
25170;DHT22;13129;48.012;10.352;2023-08-24T12:28:13;34.70;56.40
25170;DHT22;13129;48.012;10.352;2023-08-24T12:35:49;34.40;57.10
25170;DHT22;13129;48.012;10.352;2023-08-24T12:38:14;34.30;57.20
25170;DHT22;13129;48.012;10.352;2023-08-24T12:40:40;34.40;57.00
25170;DHT22;13129;48.012;10.352;2023-08-24T12:43:05;34.40;57.00
25170;DHT22;13129;48.012;10.352;2023-08-24T12:45:31;34.50;56.90
25170;DHT22;13129;48.012;10.352;2023-08-24T12:47:57;34.60;56.60
25170;DHT22;13129;48.012;10.352;2023-08-24T12:50:22;34.50;55.80
25170;DHT22;13129;48.012;10.352;2023-08-24T12:52:48;34.60;55.90
25170;DHT22;13129;48.012;10.352;2023-08-24T12:55:14;34.70;57.00
25170;DHT22;13129;48.012;10.352;2023-08-24T12:57:40;34.80;57.30
25170;DHT22;13129;48.012;10.352;2023-08-24T13:00:06;34.80;57.00
25170;DHT22;13129;48.012;10.352;2023-08-24T13:02:33;34.80;56.90
25170;DHT22;13129;48.012;10.352;2023-08-24T13:04:59;34.80;56.40
25170;DHT22;13129;48.012;10.352;2023-08-24T13:07:26;34.70;56.30
25170;DHT22;13129;48.012;10.352;2023-08-24T13:09:52;34.50;55.50
25170;DHT22;13129;48.012;10.352;2023-08-24T13:12:17;34.60;55.60
25170;DHT22;13129;48.012;10.352;2023-08-24T13:14:43;34.70;55.40
25170;DHT22;13129;48.012;10.352;2023-08-24T13:17:08;34.70;55.00
25170;DHT22;13129;48.012;10.352;2023-08-24T13:19:34;34.50;54.60
25170;DHT22;13129;48.012;10.352;2023-08-24T13:21:59;34.30;54.00
25170;DHT22;13129;48.012;10.352;2023-08-24T13:24:25;34.00;54.20
25170;DHT22;13129;48.012;10.352;2023-08-24T13:26:50;34.00;56.00
25170;DHT22;13129;48.012;10.352;2023-08-24T13:29:16;34.00;55.70
25170;DHT22;13129;48.012;10.352;2023-08-24T13:31:41;34.00;55.00
25170;DHT22;13129;48.012;10.352;2023-08-24T13:34:07;34.00;55.10
25170;DHT22;13129;48.012;10.352;2023-08-24T13:36:34;34.20;55.30
25170;DHT22;13129;48.012;10.352;2023-08-24T13:38:59;34.30;55.40
25170;DHT22;13129;48.012;10.352;2023-08-24T13:41:25;34.20;55.50
25170;DHT22;13129;48.012;10.352;2023-08-24T13:43:50;34.20;55.60
25170;DHT22;13129;48.012;10.352;2023-08-24T13:46:16;34.40;56.60
25170;DHT22;13129;48.012;10.352;2023-08-24T13:48:42;34.30;56.90
25170;DHT22;13129;48.012;10.352;2023-08-24T13:51:07;34.30;57.30
25170;DHT22;13129;48.012;10.352;2023-08-24T13:53:33;34.30;57.10
25170;DHT22;13129;48.012;10.352;2023-08-24T13:55:59;34.40;57.20
25170;DHT22;13129;48.012;10.352;2023-08-24T13:58:24;34.40;56.50
25170;DHT22;13129;48.012;10.352;2023-08-24T14:00:57;34.30;55.90
25170;DHT22;13129;48.012;10.352;2023-08-24T14:03:23;34.20;55.30
25170;DHT22;13129;48.012;10.352;2023-08-24T14:05:49;34.00;55.20
25170;DHT22;13129;48.012;10.352;2023-08-24T14:08:16;33.90;55.80
25170;DHT22;13129;48.012;10.352;2023-08-24T14:10:42;33.90;56.10
25170;DHT22;13129;48.012;10.352;2023-08-24T14:13:07;33.80;55.70
25170;DHT22;13129;48.012;10.352;2023-08-24T14:15:33;33.70;55.30
25170;DHT22;13129;48.012;10.352;2023-08-24T14:17:58;33.60;55.50
25170;DHT22;13129;48.012;10.352;2023-08-24T14:20:24;33.60;55.30
25170;DHT22;13129;48.012;10.352;2023-08-24T14:22:50;33.60;55.20
25170;DHT22;13129;48.012;10.352;2023-08-24T14:25:15;33.60;55.20
25170;DHT22;13129;48.012;10.352;2023-08-24T14:27:41;33.60;55.70
25170;DHT22;13129;48.012;10.352;2023-08-24T14:30:07;33.60;55.80
25170;DHT22;13129;48.012;10.352;2023-08-24T14:32:33;33.60;55.90
25170;DHT22;13129;48.012;10.352;2023-08-24T14:34:59;33.50;55.50
25170;DHT22;13129;48.012;10.352;2023-08-24T14:37:25;33.40;55.60
25170;DHT22;13129;48.012;10.352;2023-08-24T14:39:51;33.40;55.70
25170;DHT22;13129;48.012;10.352;2023-08-24T14:42:17;33.30;55.80
25170;DHT22;13129;48.012;10.352;2023-08-24T14:44:42;33.10;56.20
25170;DHT22;13129;48.012;10.352;2023-08-24T14:47:08;33.10;56.10
25170;DHT22;13129;48.012;10.352;2023-08-24T14:49:34;32.90;56.20
25170;DHT22;13129;48.012;10.352;2023-08-24T14:51:59;32.90;56.60
25170;DHT22;13129;48.012;10.352;2023-08-24T14:54:25;32.80;56.60
25170;DHT22;13129;48.012;10.352;2023-08-24T14:56:50;32.70;57.20
25170;DHT22;13129;48.012;10.352;2023-08-24T14:59:16;32.60;57.00
25170;DHT22;13129;48.012;10.352;2023-08-24T15:01:42;32.60;57.20
25170;DHT22;13129;48.012;10.352;2023-08-24T15:04:08;32.50;57.80
25170;DHT22;13129;48.012;10.352;2023-08-24T15:06:33;32.40;57.90
25170;DHT22;13129;48.012;10.352;2023-08-24T15:08:59;32.40;58.40
25170;DHT22;13129;48.012;10.352;2023-08-24T15:11:25;32.30;58.30
25170;DHT22;13129;48.012;10.352;2023-08-24T15:13:50;32.30;58.40
25170;DHT22;13129;48.012;10.352;2023-08-24T15:16:16;32.20;58.20
25170;DHT22;13129;48.012;10.352;2023-08-24T15:18:42;32.20;58.30
25170;DHT22;13129;48.012;10.352;2023-08-24T15:21:07;32.10;58.30
25170;DHT22;13129;48.012;10.352;2023-08-24T15:23:33;32.10;58.50
25170;DHT22;13129;48.012;10.352;2023-08-24T15:26:00;32.00;58.70
25170;DHT22;13129;48.012;10.352;2023-08-24T15:28:27;32.00;58.90
25170;DHT22;13129;48.012;10.352;2023-08-24T15:30:53;31.90;59.10
25170;DHT22;13129;48.012;10.352;2023-08-24T15:33:19;31.70;59.50
25170;DHT22;13129;48.012;10.352;2023-08-24T15:35:45;31.60;59.60
25170;DHT22;13129;48.012;10.352;2023-08-24T15:38:11;31.50;59.70
25170;DHT22;13129;48.012;10.352;2023-08-24T15:40:37;31.40;60.10
25170;DHT22;13129;48.012;10.352;2023-08-24T15:43:04;31.30;60.50
25170;DHT22;13129;48.012;10.352;2023-08-24T15:45:30;31.30;61.10
25170;DHT22;13129;48.012;10.352;2023-08-24T15:47:57;31.30;61.70
25170;DHT22;13129;48.012;10.352;2023-08-24T15:50:23;31.30;62.20
25170;DHT22;13129;48.012;10.352;2023-08-24T15:52:49;31.30;62.90
25170;DHT22;13129;48.012;10.352;2023-08-24T15:55:15;31.40;63.50
25170;DHT22;13129;48.012;10.352;2023-08-24T15:57:41;31.40;63.50
25170;DHT22;13129;48.012;10.352;2023-08-24T16:00:07;31.40;63.70
25170;DHT22;13129;48.012;10.352;2023-08-24T16:02:40;31.30;63.40
25170;DHT22;13129;48.012;10.352;2023-08-24T16:05:07;31.30;63.50
25170;DHT22;13129;48.012;10.352;2023-08-24T16:07:32;31.30;63.70
25170;DHT22;13129;48.012;10.352;2023-08-24T16:09:58;31.30;63.60
25170;DHT22;13129;48.012;10.352;2023-08-24T16:12:24;31.30;64.00
25170;DHT22;13129;48.012;10.352;2023-08-24T16:14:49;31.20;64.30
25170;DHT22;13129;48.012;10.352;2023-08-24T16:17:15;31.10;64.40
25170;DHT22;13129;48.012;10.352;2023-08-24T16:19:42;31.10;64.50
25170;DHT22;13129;48.012;10.352;2023-08-24T16:22:08;31.00;64.70
25170;DHT22;13129;48.012;10.352;2023-08-24T16:24:33;31.00;65.00
25170;DHT22;13129;48.012;10.352;2023-08-24T16:26:59;30.90;65.40
25170;DHT22;13129;48.012;10.352;2023-08-24T16:29:24;30.80;65.50
25170;DHT22;13129;48.012;10.352;2023-08-24T16:31:52;30.70;66.10
25170;DHT22;13129;48.012;10.352;2023-08-24T16:34:18;30.60;66.70
25170;DHT22;13129;48.012;10.352;2023-08-24T16:36:43;30.40;67.40
25170;DHT22;13129;48.012;10.352;2023-08-24T16:39:09;30.30;68.10
25170;DHT22;13129;48.012;10.352;2023-08-24T16:41:35;30.10;68.40
25170;DHT22;13129;48.012;10.352;2023-08-24T16:44:01;30.00;68.80
25170;DHT22;13129;48.012;10.352;2023-08-24T16:46:28;29.90;69.90
25170;DHT22;13129;48.012;10.352;2023-08-24T16:48:53;29.80;70.20
25170;DHT22;13129;48.012;10.352;2023-08-24T16:51:19;29.70;71.00
25170;DHT22;13129;48.012;10.352;2023-08-24T16:53:44;29.50;72.40
25170;DHT22;13129;48.012;10.352;2023-08-24T16:56:10;29.40;73.10
25170;DHT22;13129;48.012;10.352;2023-08-24T16:58:35;29.30;74.10
25170;DHT22;13129;48.012;10.352;2023-08-24T17:01:09;29.10;75.20
25170;DHT22;13129;48.012;10.352;2023-08-24T17:03:34;28.90;77.10
25170;DHT22;13129;48.012;10.352;2023-08-24T17:06:00;28.60;78.00
25170;DHT22;13129;48.012;10.352;2023-08-24T17:08:25;28.50;79.10
25170;DHT22;13129;48.012;10.352;2023-08-24T17:10:51;28.30;80.50
25170;DHT22;13129;48.012;10.352;2023-08-24T17:13:17;28.10;81.00
25170;DHT22;13129;48.012;10.352;2023-08-24T17:15:42;28.00;81.50
25170;DHT22;13129;48.012;10.352;2023-08-24T17:18:08;27.90;82.00
25170;DHT22;13129;48.012;10.352;2023-08-24T17:20:37;27.80;82.60
25170;DHT22;13129;48.012;10.352;2023-08-24T17:23:03;27.60;83.00
25170;DHT22;13129;48.012;10.352;2023-08-24T17:25:29;27.40;83.30
25170;DHT22;13129;48.012;10.352;2023-08-24T17:27:56;27.30;84.00
25170;DHT22;13129;48.012;10.352;2023-08-24T17:30:21;27.20;84.50
25170;DHT22;13129;48.012;10.352;2023-08-24T17:32:47;27.10;85.50
25170;DHT22;13129;48.012;10.352;2023-08-24T17:35:13;27.00;86.40
25170;DHT22;13129;48.012;10.352;2023-08-24T17:37:38;27.00;87.70
25170;DHT22;13129;48.012;10.352;2023-08-24T17:40:05;26.90;88.50
25170;DHT22;13129;48.012;10.352;2023-08-24T17:42:38;26.80;89.30
25170;DHT22;13129;48.012;10.352;2023-08-24T17:45:05;26.80;89.70
25170;DHT22;13129;48.012;10.352;2023-08-24T17:47:31;26.70;90.30
25170;DHT22;13129;48.012;10.352;2023-08-24T17:49:57;26.70;90.80
25170;DHT22;13129;48.012;10.352;2023-08-24T17:52:23;26.60;91.30
25170;DHT22;13129;48.012;10.352;2023-08-24T17:54:48;26.50;91.80
25170;DHT22;13129;48.012;10.352;2023-08-24T17:57:14;26.40;92.30
25170;DHT22;13129;48.012;10.352;2023-08-24T17:59:41;26.40;92.80
25170;DHT22;13129;48.012;10.352;2023-08-24T18:02:06;26.40;93.20
25170;DHT22;13129;48.012;10.352;2023-08-24T18:04:32;26.30;93.60
25170;DHT22;13129;48.012;10.352;2023-08-24T18:06:57;26.20;94.20
25170;DHT22;13129;48.012;10.352;2023-08-24T18:09:23;26.10;94.90
25170;DHT22;13129;48.012;10.352;2023-08-24T18:11:48;26.00;95.20
25170;DHT22;13129;48.012;10.352;2023-08-24T18:14:14;26.00;95.10
25170;DHT22;13129;48.012;10.352;2023-08-24T18:16:40;25.80;95.50
25170;DHT22;13129;48.012;10.352;2023-08-24T18:19:05;25.70;96.20
25170;DHT22;13129;48.012;10.352;2023-08-24T18:21:31;25.60;96.70
25170;DHT22;13129;48.012;10.352;2023-08-24T18:23:58;25.50;97.20
25170;DHT22;13129;48.012;10.352;2023-08-24T18:26:23;25.50;97.30
25170;DHT22;13129;48.012;10.352;2023-08-24T18:28:49;25.50;97.20
25170;DHT22;13129;48.012;10.352;2023-08-24T18:31:14;25.50;97.30
25170;DHT22;13129;48.012;10.352;2023-08-24T18:33:40;25.50;97.20
25170;DHT22;13129;48.012;10.352;2023-08-24T18:36:06;25.50;97.00
25170;DHT22;13129;48.012;10.352;2023-08-24T18:38:31;25.40;97.00
25170;DHT22;13129;48.012;10.352;2023-08-24T18:40:57;25.30;97.30
25170;DHT22;13129;48.012;10.352;2023-08-24T18:43:23;25.20;97.90
25170;DHT22;13129;48.012;10.352;2023-08-24T18:45:59;25.10;98.50
25170;DHT22;13129;48.012;10.352;2023-08-24T18:48:27;25.00;99.50
25170;DHT22;13129;48.012;10.352;2023-08-24T18:50:53;24.90;99.90
25170;DHT22;13129;48.012;10.352;2023-08-24T18:53:19;24.80;99.90
25170;DHT22;13129;48.012;10.352;2023-08-24T18:55:45;24.80;99.90
25170;DHT22;13129;48.012;10.352;2023-08-24T18:58:10;24.80;99.90
25170;DHT22;13129;48.012;10.352;2023-08-24T19:00:36;24.70;99.90
25170;DHT22;13129;48.012;10.352;2023-08-24T19:03:02;24.60;99.90
25170;DHT22;13129;48.012;10.352;2023-08-24T19:05:32;24.60;99.90
25170;DHT22;13129;48.012;10.352;2023-08-24T19:07:58;24.60;99.90
25170;DHT22;13129;48.012;10.352;2023-08-24T19:10:24;24.50;99.90
25170;DHT22;13129;48.012;10.352;2023-08-24T19:12:49;24.50;99.90